createdAt,value
2019-01-08T00:01:49.344Z,100184.31
2019-01-08T00:04:18.745Z,100176.02
2019-01-08T00:06:47.429Z,100167.36
2019-01-08T00:09:21.393Z,100153.97
2019-01-08T00:11:49.827Z,100157.45
2019-01-08T00:14:18.220Z,100141.52
2019-01-08T00:16:46.674Z,100130.62
2019-01-08T00:19:15.066Z,100131.86
2019-01-08T00:21:43.562Z,100134.95
2019-01-08T00:24:11.962Z,100121.84
2019-01-08T00:26:40.317Z,100117.86
2019-01-08T00:29:08.893Z,100110.17
2019-01-08T00:31:37.852Z,100108.52
2019-01-08T00:34:06.227Z,100108.06
2019-01-08T00:36:34.664Z,100102.37
2019-01-08T00:39:03.827Z,100096.28
2019-01-08T00:41:32.301Z,100088.83
2019-01-08T00:44:00.698Z,100074.06
2019-01-08T00:46:29.091Z,100079.19
2019-01-08T00:48:57.708Z,100073.53
2019-01-08T00:51:26.352Z,100063.09
2019-01-08T00:53:54.757Z,100056.09
2019-01-08T00:56:23.153Z,100045.64
2019-01-08T00:58:51.905Z,100037.14
2019-01-08T01:01:20.373Z,100027.50
2019-01-08T01:03:48.730Z,100032.20
2019-01-08T01:06:17.186Z,100019.16
2019-01-08T01:08:45.546Z,100023.89
2019-01-08T01:11:13.949Z,100007.36
2019-01-08T01:13:42.284Z,100002.48
2019-01-08T01:16:10.668Z,100005.94
2019-01-08T01:18:39.018Z,99999.89
2019-01-08T01:21:07.408Z,99995.98
2019-01-08T01:23:35.765Z,99995.52
2019-01-08T01:26:04.176Z,99992.96
2019-01-08T01:28:32.517Z,99982.47
2019-01-08T01:31:00.899Z,99976.38
2019-01-08T01:33:29.250Z,99973.27
2019-01-08T01:35:57.634Z,99948.55
2019-01-08T01:38:25.995Z,99946.33
2019-01-08T01:40:54.373Z,99944.56
2019-01-08T01:43:22.720Z,99939.82
2019-01-08T01:45:51.095Z,99934.09
2019-01-08T01:48:19.450Z,99925.46
2019-01-08T01:50:47.832Z,99939.23
2019-01-08T01:53:16.202Z,99927.52
2019-01-08T01:55:44.599Z,99924.91
2019-01-08T01:58:12.943Z,99925.78
2019-01-08T02:00:41.319Z,99921.92
2019-01-08T02:03:09.675Z,99912.81
2019-01-08T02:05:38.565Z,99908.91
2019-01-08T02:08:07.025Z,99900.30
2019-01-08T02:10:35.378Z,99900.19
2019-01-08T02:13:03.770Z,99901.06
2019-01-08T02:15:32.275Z,99897.16
2019-01-08T02:18:00.654Z,99884.56
2019-01-08T02:20:29.000Z,99886.73
2019-01-08T02:22:57.378Z,99880.56
2019-01-08T02:25:25.734Z,99879.17
2019-01-08T02:27:54.116Z,99892.56
2019-01-08T02:30:22.463Z,99875.55
2019-01-08T02:32:50.844Z,99868.99
2019-01-08T02:35:19.286Z,99849.80
2019-01-08T02:37:47.664Z,99857.98
2019-01-08T02:40:16.011Z,99859.38
2019-01-08T02:42:44.400Z,99858.87
2019-01-08T02:45:12.774Z,99854.55
2019-01-08T02:47:41.144Z,99856.08
2019-01-08T02:50:09.580Z,99855.11
2019-01-08T02:52:37.976Z,99848.04
2019-01-08T02:55:06.395Z,99842.45
2019-01-08T02:57:34.783Z,99842.96
2019-01-08T03:00:03.910Z,99822.07
2019-01-08T03:02:32.288Z,99843.34
2019-01-08T03:05:00.639Z,99828.31
2019-01-08T03:07:29.090Z,99825.56
2019-01-08T03:09:57.517Z,99831.62
2019-01-08T03:12:25.903Z,99828.27
2019-01-08T03:14:54.512Z,99817.84
2019-01-08T03:17:22.858Z,99817.80
2019-01-08T03:19:51.240Z,99806.08
2019-01-08T03:22:19.662Z,99803.89
2019-01-08T03:24:48.050Z,99792.12
2019-01-08T03:27:16.471Z,99792.03
2019-01-08T03:29:44.860Z,99793.42
2019-01-08T03:32:13.274Z,99787.28
2019-01-08T03:34:41.666Z,99786.77
2019-01-08T03:37:10.018Z,99787.13
2019-01-08T03:39:38.425Z,99779.32
2019-01-08T03:42:06.884Z,99782.77
2019-01-08T03:44:35.357Z,99782.61
2019-01-08T03:47:03.712Z,99787.83
2019-01-08T03:49:32.081Z,99780.84
2019-01-08T03:52:00.426Z,99772.36
2019-01-08T03:54:28.873Z,99744.17
2019-01-08T03:56:57.232Z,99751.04
2019-01-08T03:59:25.606Z,99748.66
2019-01-08T04:01:53.954Z,99753.41
2019-01-08T04:04:22.469Z,99744.64
2019-01-08T04:06:50.815Z,99751.10
2019-01-08T04:09:19.193Z,99738.97
2019-01-08T04:11:47.563Z,99741.06
2019-01-08T04:14:15.954Z,99720.16
2019-01-08T04:16:44.298Z,99725.31
2019-01-08T04:19:12.638Z,99729.66
2019-01-08T04:21:41.021Z,99735.72
2019-01-08T04:24:09.442Z,99724.91
2019-01-08T04:26:38.386Z,99711.37
2019-01-08T04:29:06.746Z,99709.95
2019-01-08T04:31:35.200Z,99704.34
2019-01-08T04:34:03.543Z,99705.64
2019-01-08T04:36:31.919Z,99709.91
2019-01-08T04:39:00.268Z,99714.08
2019-01-08T04:41:28.651Z,99709.77
2019-01-08T04:43:57.012Z,99713.45
2019-01-08T04:46:25.391Z,99700.04
2019-01-08T04:48:53.980Z,99706.15
2019-01-08T04:51:22.370Z,99696.62
2019-01-08T04:53:50.723Z,99695.78
2019-01-08T04:56:19.106Z,99687.91
2019-01-08T04:58:47.517Z,99684.62
2019-01-08T05:01:15.927Z,99683.42
2019-01-08T05:03:44.355Z,99680.22
2019-01-08T05:06:12.843Z,99678.33
2019-01-08T05:08:41.209Z,99675.34
2019-01-08T05:11:09.597Z,99669.12
2019-01-08T05:13:37.938Z,99666.52
2019-01-08T05:16:06.328Z,99663.55
2019-01-08T05:18:34.672Z,99666.84
2019-01-08T05:21:03.062Z,99656.61
2019-01-08T05:23:31.430Z,99661.52
2019-01-08T05:25:59.752Z,99665.27
2019-01-08T05:28:28.136Z,99659.33
2019-01-08T05:30:56.491Z,99657.05
2019-01-08T05:33:24.960Z,99650.72
2019-01-08T05:35:53.294Z,99663.34
2019-01-08T05:38:21.754Z,99663.52
2019-01-08T05:40:50.115Z,99661.27
2019-01-08T05:43:18.509Z,99672.42
2019-01-08T05:45:46.850Z,99679.46
2019-01-08T05:48:15.239Z,99670.60
2019-01-08T05:50:43.609Z,99695.83
2019-01-08T05:53:12.406Z,99664.44
2019-01-08T05:55:40.744Z,99665.53
2019-01-08T05:58:11.039Z,99672.34
2019-01-08T06:00:39.505Z,99672.05
2019-01-08T06:03:07.963Z,99679.19
2019-01-08T06:05:36.527Z,99674.03
2019-01-08T06:08:05.523Z,99675.61
2019-01-08T06:10:34.430Z,99674.88
2019-01-08T06:13:06.835Z,99674.94
2019-01-08T06:15:35.180Z,99670.80
2019-01-08T06:18:03.553Z,99675.25
2019-01-08T06:20:32.890Z,99674.71
2019-01-08T06:23:01.912Z,99674.94
2019-01-08T06:25:30.409Z,99675.09
2019-01-08T06:28:01.086Z,99677.18
2019-01-08T06:30:29.455Z,99677.95
2019-01-08T06:32:57.843Z,99676.88
2019-01-08T06:35:27.350Z,99678.97
2019-01-08T06:37:55.657Z,99680.95
2019-01-08T06:40:24.002Z,99675.85
2019-01-08T06:42:52.392Z,99678.08
2019-01-08T06:45:20.739Z,99672.00
2019-01-08T06:47:49.118Z,99680.06
2019-01-08T06:50:17.581Z,99684.64
2019-01-08T06:52:45.876Z,99688.25
2019-01-08T06:55:14.269Z,99684.12
2019-01-08T06:57:42.621Z,99678.03
2019-01-08T07:00:11.069Z,99683.25
2019-01-08T07:02:39.423Z,99685.37
2019-01-08T07:05:07.955Z,99687.16
2019-01-08T07:07:36.309Z,99690.58
2019-01-08T07:10:06.543Z,99689.27
2019-01-08T07:12:34.894Z,99689.27
2019-01-08T07:15:03.286Z,99690.78
2019-01-08T07:17:31.630Z,99685.91
2019-01-08T07:20:00.010Z,99690.61
2019-01-08T07:22:28.366Z,99687.72
2019-01-08T07:24:56.745Z,99682.08
2019-01-08T07:27:25.091Z,99690.27
2019-01-08T07:29:53.466Z,99698.56
2019-01-08T07:32:21.833Z,99688.82
2019-01-08T07:34:50.295Z,99693.30
2019-01-08T07:37:18.636Z,99696.31
2019-01-08T07:39:47.022Z,99710.13
2019-01-08T07:42:15.377Z,99737.23
2019-01-08T07:44:43.836Z,99729.91
2019-01-08T07:47:12.268Z,99718.44
2019-01-08T07:49:40.645Z,99703.52
2019-01-08T07:52:09.106Z,99705.54
2019-01-08T07:54:37.480Z,99693.70
2019-01-08T07:57:05.910Z,99710.33
2019-01-08T07:59:34.285Z,99699.90
2019-01-08T08:02:02.638Z,99701.05
2019-01-08T08:04:31.117Z,99699.91
2019-01-08T08:06:59.472Z,99695.95
2019-01-08T08:09:28.111Z,99693.67
2019-01-08T08:11:56.575Z,99694.75
2019-01-08T08:14:24.924Z,99688.02
2019-01-08T08:16:53.306Z,99677.03
2019-01-08T08:19:21.664Z,99682.11
2019-01-08T08:21:50.115Z,99682.29
2019-01-08T08:24:18.469Z,99685.02
2019-01-08T08:26:46.943Z,99697.02
2019-01-08T08:29:15.289Z,99693.16
2019-01-08T08:31:43.683Z,99691.17
2019-01-08T08:34:12.556Z,99692.19
2019-01-08T08:36:41.485Z,99689.77
2019-01-08T08:39:10.101Z,99691.81
2019-01-08T08:41:38.560Z,99702.63
2019-01-08T08:44:06.923Z,99696.17
2019-01-08T08:46:35.922Z,99696.73
2019-01-08T08:49:04.276Z,99698.63
2019-01-08T08:51:33.924Z,99689.52
2019-01-08T08:54:02.275Z,99693.52
2019-01-08T08:56:30.660Z,99696.08
2019-01-08T08:58:59.153Z,99698.02
2019-01-08T09:01:27.856Z,99695.41
2019-01-08T09:03:56.269Z,99689.10
2019-01-08T09:06:24.664Z,99696.35
2019-01-08T09:08:53.013Z,99702.69
2019-01-08T09:11:21.394Z,99698.17
2019-01-08T09:13:49.784Z,99703.33
2019-01-08T09:16:18.237Z,99709.73
2019-01-08T09:18:46.595Z,99699.06
2019-01-08T09:21:15.014Z,99705.52
2019-01-08T09:23:43.370Z,99710.98
2019-01-08T09:26:12.458Z,99711.92
2019-01-08T09:28:40.905Z,99708.91
2019-01-08T09:31:15.306Z,99705.44
2019-01-08T09:33:39.439Z,99701.84
2019-01-08T09:36:07.776Z,99699.49
2019-01-08T09:38:36.168Z,99705.11
2019-01-08T09:41:04.583Z,99698.09
2019-01-08T09:43:32.966Z,99707.56
2019-01-08T09:46:01.638Z,99704.03
2019-01-08T09:48:30.547Z,99708.78
2019-01-08T09:50:58.974Z,99705.41
2019-01-08T09:53:27.910Z,99715.02
2019-01-08T09:55:56.480Z,99702.58
2019-01-08T09:58:24.931Z,99694.50
2019-01-08T10:00:53.283Z,99699.19
2019-01-08T10:03:21.679Z,99691.65
2019-01-08T10:05:50.031Z,99690.86
2019-01-08T10:08:18.426Z,99676.20
2019-01-08T10:10:47.316Z,99681.01
2019-01-08T10:13:15.856Z,99670.94
2019-01-08T10:15:44.276Z,99672.24
2019-01-08T10:18:12.666Z,99659.95
2019-01-08T10:20:41.508Z,99676.99
2019-01-08T10:23:10.472Z,99676.27
2019-01-08T10:25:38.908Z,99660.63
2019-01-08T10:28:07.307Z,99649.73
2019-01-08T10:30:35.662Z,99647.92
2019-01-08T10:33:04.058Z,99647.08
2019-01-08T10:35:32.547Z,99655.93
2019-01-08T10:38:00.933Z,99654.75
2019-01-08T10:40:29.284Z,99650.44
2019-01-08T10:42:57.647Z,99650.33
2019-01-08T10:45:26.033Z,99639.12
2019-01-08T10:47:54.389Z,99637.80
2019-01-08T10:50:22.857Z,99636.70
2019-01-08T10:52:55.162Z,99632.39
2019-01-08T10:55:23.632Z,99626.80
2019-01-08T10:57:51.972Z,99622.56
2019-01-08T11:00:22.389Z,99616.05
2019-01-08T11:02:50.736Z,99611.68
2019-01-08T11:05:19.166Z,99614.17
2019-01-08T11:07:47.630Z,99599.43
2019-01-08T11:10:16.149Z,99597.61
2019-01-08T11:12:44.496Z,99590.42
2019-01-08T11:15:12.944Z,99601.62
2019-01-08T11:17:41.298Z,99591.35
2019-01-08T11:20:10.068Z,99588.11
2019-01-08T11:22:38.487Z,99592.83
2019-01-08T11:25:06.951Z,99602.16
2019-01-08T11:27:35.365Z,99597.31
2019-01-08T11:30:04.190Z,99590.97
2019-01-08T11:32:32.611Z,99589.09
2019-01-08T11:35:01.086Z,99586.95
2019-01-08T11:37:29.508Z,99576.34
2019-01-08T11:39:57.909Z,99590.23
2019-01-08T11:42:26.429Z,99585.25
2019-01-08T11:44:54.872Z,99576.30
2019-01-08T11:47:23.494Z,99586.82
2019-01-08T11:49:51.882Z,99583.59
2019-01-08T11:52:20.312Z,99595.19
2019-01-08T11:54:48.765Z,99582.50
2019-01-08T11:57:17.193Z,99578.48
2019-01-08T11:59:45.605Z,99579.41
2019-01-08T12:02:14.000Z,99579.06
2019-01-08T12:04:42.370Z,99573.07
2019-01-08T12:07:10.832Z,99560.78
2019-01-08T12:09:39.181Z,99563.44
2019-01-08T12:12:07.568Z,99565.72
2019-01-08T12:14:35.946Z,99547.87
2019-01-08T12:17:04.405Z,99541.09
2019-01-08T12:19:32.769Z,99553.33
2019-01-08T12:22:01.148Z,99562.92
2019-01-08T12:24:29.570Z,99544.37
2019-01-08T12:26:58.043Z,99541.20
2019-01-08T12:29:27.743Z,99533.34
2019-01-08T12:31:56.334Z,99534.06
2019-01-08T12:34:24.873Z,99531.05
2019-01-08T12:36:53.260Z,99533.84
2019-01-08T12:39:21.616Z,99526.13
2019-01-08T12:41:50.807Z,99530.13
2019-01-08T12:44:20.180Z,99528.52
2019-01-08T12:46:48.987Z,99533.55
2019-01-08T12:49:17.343Z,99517.52
2019-01-08T12:51:45.741Z,99523.97
2019-01-08T12:54:14.171Z,99517.40
2019-01-08T12:56:42.699Z,99517.34
2019-01-08T12:59:11.288Z,99515.43
2019-01-08T13:01:44.491Z,99523.25
2019-01-08T13:04:13.342Z,99513.66
2019-01-08T13:06:45.280Z,99518.15
2019-01-08T13:09:19.299Z,99512.87
2019-01-08T13:11:47.638Z,99525.23
2019-01-08T13:14:18.303Z,99516.84
2019-01-08T13:16:57.011Z,99520.06
2019-01-08T13:19:25.629Z,99511.78
2019-01-08T13:21:55.548Z,99495.55
2019-01-08T13:24:27.562Z,99481.94
2019-01-08T13:26:57.834Z,99497.52
2019-01-08T13:29:32.279Z,99510.83
2019-01-08T13:32:03.922Z,99514.13
2019-01-08T13:34:56.248Z,99514.91
2019-01-08T13:37:26.409Z,99507.61
2019-01-08T13:39:56.737Z,99504.08
2019-01-08T13:42:31.248Z,99498.87
2019-01-08T13:44:59.626Z,99495.86
2019-01-08T13:47:31.238Z,99495.75
2019-01-08T13:50:00.008Z,99496.59
2019-01-08T13:52:30.538Z,99478.81
2019-01-08T13:55:01.192Z,99513.11
2019-01-08T13:57:30.023Z,99496.30
2019-01-08T14:00:00.557Z,99503.24
2019-01-08T14:02:32.548Z,99508.97
2019-01-08T14:05:01.616Z,99517.98
2019-01-08T14:07:30.522Z,99503.65
2019-01-08T14:10:00.921Z,99499.02
2019-01-08T14:12:29.779Z,99505.30
2019-01-08T14:14:58.285Z,99494.18
2019-01-08T14:17:28.261Z,99487.27
2019-01-08T14:19:57.282Z,99495.92
2019-01-08T14:22:26.165Z,99510.56
2019-01-08T14:24:55.218Z,99494.62
2019-01-08T14:27:24.011Z,99504.52
2019-01-08T14:29:52.962Z,99519.38
2019-01-08T14:32:21.792Z,99509.47
2019-01-08T14:34:54.293Z,99509.73
2019-01-08T14:37:23.089Z,99512.08
2019-01-08T14:39:51.861Z,99514.94
2019-01-08T14:42:20.625Z,99516.24
2019-01-08T14:44:49.635Z,99496.39
2019-01-08T14:47:21.333Z,99522.81
2019-01-08T14:49:49.984Z,99507.13
2019-01-08T14:52:18.625Z,99504.52
2019-01-08T14:54:47.292Z,99507.91
2019-01-08T14:57:18.670Z,99520.93
2019-01-08T14:59:47.531Z,99516.91
2019-01-08T15:02:15.944Z,99517.84
2019-01-08T15:04:45.203Z,99510.92
2019-01-08T15:07:13.856Z,99517.43
2019-01-08T15:09:42.721Z,99514.56
2019-01-08T15:12:11.893Z,99522.14
2019-01-08T15:14:40.461Z,99506.69
2019-01-08T15:17:08.974Z,99515.80
2019-01-08T15:19:37.907Z,99518.47
2019-01-08T15:22:06.891Z,99524.37
2019-01-08T15:24:37.230Z,99521.70
2019-01-08T15:27:06.544Z,99538.83
2019-01-08T15:29:34.959Z,99526.77
2019-01-08T15:32:03.413Z,99538.94
2019-01-08T15:34:33.990Z,99550.31
2019-01-08T15:37:04.091Z,99549.30
2019-01-08T15:39:32.605Z,99544.37
2019-01-08T15:42:01.130Z,99556.45
2019-01-08T15:44:29.550Z,99561.46
2019-01-08T15:46:58.448Z,99566.72
2019-01-08T15:49:30.579Z,99547.03
2019-01-08T15:51:59.720Z,99554.33
2019-01-08T15:54:28.194Z,99553.44
2019-01-08T15:56:56.645Z,99550.94
2019-01-08T15:59:25.776Z,99554.48
2019-01-08T16:01:54.517Z,99543.86
2019-01-08T16:04:22.951Z,99549.28
2019-01-08T16:06:52.254Z,99547.55
2019-01-08T16:09:21.204Z,99562.30
2019-01-08T16:11:51.918Z,99550.16
2019-01-08T16:14:20.942Z,99545.53
2019-01-08T16:16:50.806Z,99555.78
2019-01-08T16:19:24.003Z,99549.85
2019-01-08T16:21:57.945Z,99540.52
2019-01-08T16:24:28.476Z,99539.66
2019-01-08T16:26:59.422Z,99545.27
2019-01-08T16:29:29.297Z,99533.55
2019-01-08T16:31:57.999Z,99537.56
2019-01-08T16:34:26.636Z,99531.69
2019-01-08T16:36:55.165Z,99533.55
2019-01-08T16:39:23.629Z,99536.31
2019-01-08T16:41:52.303Z,99544.42
2019-01-08T16:44:23.126Z,99543.91
2019-01-08T16:46:52.017Z,99542.30
2019-01-08T16:49:21.105Z,99545.20
2019-01-08T16:51:51.569Z,99535.37
2019-01-08T16:54:20.167Z,99521.31
2019-01-08T16:56:48.619Z,99529.59
2019-01-08T16:59:20.071Z,99528.28
2019-01-08T17:01:48.593Z,99514.64
2019-01-08T17:04:17.121Z,99517.35
2019-01-08T17:06:45.941Z,99514.59
2019-01-08T17:09:14.466Z,99516.05
2019-01-08T17:11:43.230Z,99503.93
2019-01-08T17:14:12.680Z,99523.86
2019-01-08T17:16:41.658Z,99527.24
2019-01-08T17:19:10.429Z,99525.68
2019-01-08T17:21:38.861Z,99509.34
2019-01-08T17:24:07.314Z,99526.63
2019-01-08T17:26:35.663Z,99535.68
2019-01-08T17:29:04.191Z,99534.84
2019-01-08T17:31:32.542Z,99537.50
2019-01-08T17:34:00.923Z,99526.45
2019-01-08T17:36:29.321Z,99524.27
2019-01-08T17:38:57.690Z,99538.67
2019-01-08T17:41:26.175Z,99522.14
2019-01-08T17:43:54.575Z,99523.75
2019-01-08T17:46:22.925Z,99516.46
2019-01-08T17:48:51.467Z,99522.04
2019-01-08T17:51:19.799Z,99524.69
2019-01-08T17:53:48.249Z,99507.45
2019-01-08T17:56:17.184Z,99520.73
2019-01-08T17:58:45.637Z,99522.40
2019-01-08T18:01:20.003Z,99528.95
2019-01-08T18:03:50.300Z,99532.55
2019-01-08T18:06:18.659Z,99545.97
2019-01-08T18:08:47.312Z,99544.08
2019-01-08T18:11:15.732Z,99550.38
2019-01-08T18:13:44.222Z,99551.63
2019-01-08T18:16:12.634Z,99556.06
2019-01-08T18:18:41.000Z,99561.63
2019-01-08T18:21:09.446Z,99585.78
2019-01-08T18:23:37.951Z,99582.91
2019-01-08T18:26:08.261Z,99581.70
2019-01-08T18:28:36.733Z,99581.29
2019-01-08T18:31:05.137Z,99596.52
2019-01-08T18:33:33.761Z,99583.11
2019-01-08T18:36:02.141Z,99600.62
2019-01-08T18:38:30.937Z,99604.20
2019-01-08T18:40:59.323Z,99586.23
2019-01-08T18:43:27.855Z,99575.56
2019-01-08T18:45:56.243Z,99573.19
2019-01-08T18:48:24.597Z,99583.41
2019-01-08T18:50:53.120Z,99577.01
2019-01-08T18:53:21.468Z,99583.69
2019-01-08T18:55:49.857Z,99580.30
2019-01-08T18:58:18.210Z,99592.42
2019-01-08T19:00:46.640Z,99605.13
2019-01-08T19:03:14.983Z,99589.16
2019-01-08T19:05:43.379Z,99593.30
2019-01-08T19:08:11.751Z,99601.88
2019-01-08T19:10:40.128Z,99597.92
2019-01-08T19:13:08.539Z,99593.66
2019-01-08T19:15:36.996Z,99582.76
2019-01-08T19:18:05.344Z,99585.77
2019-01-08T19:20:33.749Z,99589.77
2019-01-08T19:23:02.179Z,99585.50
2019-01-08T19:25:30.576Z,99580.86
2019-01-08T19:27:58.924Z,99591.75
2019-01-08T19:30:27.279Z,99586.73
2019-01-08T19:32:55.648Z,99573.67
2019-01-08T19:35:31.260Z,99574.88
2019-01-08T19:37:54.217Z,99572.20
2019-01-08T19:40:22.660Z,99576.89
2019-01-08T19:42:51.203Z,99576.38
2019-01-08T19:45:19.550Z,99561.50
2019-01-08T19:47:48.036Z,99559.50
2019-01-08T19:50:16.425Z,99561.84
2019-01-08T19:52:44.891Z,99560.92
2019-01-08T19:55:13.208Z,99564.69
2019-01-08T19:57:41.585Z,99568.89
2019-01-08T20:00:11.278Z,99574.09
2019-01-08T20:02:39.656Z,99577.85
2019-01-08T20:05:08.245Z,99583.61
2019-01-08T20:07:36.631Z,99570.70
2019-01-08T20:10:05.727Z,99558.77
2019-01-08T20:12:34.115Z,99566.56
2019-01-08T20:15:02.538Z,99562.42
2019-01-08T20:17:31.081Z,99570.41
2019-01-08T20:19:59.504Z,99575.72
2019-01-08T20:22:27.915Z,99571.78
2019-01-08T20:24:57.347Z,99576.80
2019-01-08T20:27:25.803Z,99574.03
2019-01-08T20:29:54.156Z,99566.69
2019-01-08T20:32:22.615Z,99560.84
2019-01-08T20:34:50.991Z,99569.40
2019-01-08T20:37:19.335Z,99570.44
2019-01-08T20:39:47.717Z,99566.67
2019-01-08T20:42:16.057Z,99563.23
2019-01-08T20:44:44.516Z,99567.41
2019-01-08T20:47:12.932Z,99564.49
2019-01-08T20:49:41.384Z,99557.20
2019-01-08T20:52:09.805Z,99549.09
2019-01-08T20:54:39.086Z,99549.59
2019-01-08T20:57:09.162Z,99568.23
2019-01-08T20:59:37.541Z,99569.62
2019-01-08T21:02:05.961Z,99554.13
2019-01-08T21:04:35.657Z,99559.02
2019-01-08T21:07:04.376Z,99540.94
2019-01-08T21:09:32.780Z,99563.17
2019-01-08T21:12:01.224Z,99540.02
2019-01-08T21:14:29.639Z,99544.47
2019-01-08T21:16:57.986Z,99547.53
2019-01-08T21:19:26.436Z,99540.23
2019-01-08T21:21:54.782Z,99538.13
2019-01-08T21:24:28.521Z,99534.08
2019-01-08T21:26:53.382Z,99520.88
2019-01-08T21:29:21.766Z,99515.29
2019-01-08T21:31:50.121Z,99509.94
2019-01-08T21:34:18.508Z,99516.97
2019-01-08T21:36:46.857Z,99514.83
2019-01-08T21:39:15.242Z,99512.31
2019-01-08T21:41:43.704Z,99517.72
2019-01-08T21:44:12.091Z,99523.66
2019-01-08T21:46:40.440Z,99512.83
2019-01-08T21:49:08.829Z,99525.63
2019-01-08T21:51:37.186Z,99517.46
2019-01-08T21:54:05.738Z,99517.71
2019-01-08T21:56:34.228Z,99520.92
2019-01-08T21:59:03.242Z,99526.17
2019-01-08T22:01:33.651Z,99518.16
2019-01-08T22:04:02.703Z,99516.95
2019-01-08T22:06:31.807Z,99523.14
2019-01-08T22:09:01.225Z,99524.19
2019-01-08T22:11:30.083Z,99518.03
2019-01-08T22:13:58.438Z,99516.64
2019-01-08T22:16:27.201Z,99505.59
2019-01-08T22:18:55.557Z,99511.11
2019-01-08T22:21:24.072Z,99500.09
2019-01-08T22:23:52.427Z,99500.83
2019-01-08T22:26:21.643Z,99504.13
2019-01-08T22:28:50.449Z,99505.98
2019-01-08T22:31:19.678Z,99499.48
2019-01-08T22:33:48.465Z,99501.91
2019-01-08T22:36:17.194Z,99499.91
2019-01-08T22:38:48.214Z,99501.12
2019-01-08T22:41:18.951Z,99508.34
2019-01-08T22:43:47.787Z,99503.63
2019-01-08T22:46:17.783Z,99500.55
2019-01-08T22:48:48.134Z,99498.70
2019-01-08T22:51:17.370Z,99495.84
2019-01-08T22:53:46.355Z,99500.05
2019-01-08T22:56:15.545Z,99493.09
2019-01-08T22:58:46.199Z,99485.40
2019-01-08T23:01:18.515Z,99490.30
2019-01-08T23:03:47.462Z,99479.05
2019-01-08T23:06:16.964Z,99476.11
2019-01-08T23:08:46.010Z,99492.48
2019-01-08T23:11:15.082Z,99467.91
2019-01-08T23:13:44.469Z,99473.97
2019-01-08T23:16:14.792Z,99467.48
2019-01-08T23:18:44.072Z,99466.56
2019-01-08T23:21:12.770Z,99470.88
2019-01-08T23:23:41.227Z,99480.05
2019-01-08T23:26:09.975Z,99474.49
2019-01-08T23:28:39.016Z,99487.48
2019-01-08T23:31:08.662Z,99461.22
2019-01-08T23:33:37.517Z,99455.57
2019-01-08T23:36:06.012Z,99460.38
2019-01-08T23:38:34.730Z,99456.08
2019-01-08T23:41:03.277Z,99457.78
2019-01-08T23:43:31.870Z,99450.97
2019-01-08T23:46:00.474Z,99469.02
2019-01-08T23:48:29.169Z,99457.97
2019-01-08T23:50:58.301Z,99460.16
2019-01-08T23:53:29.632Z,99453.23
2019-01-08T23:56:01.767Z,99463.50
2019-01-08T23:58:30.583Z,99461.36
